createdAt,value
2023-04-13T00:02:18.625Z,10.85
2023-04-13T00:07:22.872Z,10.94
2023-04-13T00:12:26.050Z,10.98
2023-04-13T00:17:27.799Z,10.93
2023-04-13T00:22:29.489Z,10.87
2023-04-13T00:27:31.106Z,10.76
2023-04-13T00:32:34.580Z,10.89
2023-04-13T00:37:36.424Z,10.79
2023-04-13T00:42:38.196Z,10.78
2023-04-13T00:47:41.991Z,10.83
2023-04-13T00:52:44.857Z,10.84
2023-04-13T00:57:50.326Z,10.86
2023-04-13T01:02:53.082Z,10.77
2023-04-13T01:08:18.748Z,10.76
2023-04-13T01:13:30.352Z,10.68
2023-04-13T01:18:38.403Z,10.56
2023-04-13T01:24:06.068Z,10.60
2023-04-13T01:29:08.404Z,10.71
2023-04-13T01:34:10.962Z,10.64
2023-04-13T01:39:22.310Z,10.72
2023-04-13T01:44:35.129Z,10.50
2023-04-13T01:49:37.508Z,10.51
2023-04-13T01:55:00.738Z,10.41
2023-04-13T02:00:10.963Z,10.28
2023-04-13T02:05:14.571Z,10.27
2023-04-13T02:10:16.369Z,10.11
2023-04-13T02:15:20.913Z,10.01
2023-04-13T02:20:23.005Z,10.03
2023-04-13T02:25:28.017Z,10.00
2023-04-13T02:30:29.695Z,10.09
2023-04-13T02:35:31.558Z,9.97
2023-04-13T02:40:33.760Z,9.83
2023-04-13T02:45:35.818Z,9.92
2023-04-13T02:50:38.391Z,10.05
2023-04-13T02:55:44.114Z,10.01
2023-04-13T03:00:48.855Z,9.85
2023-04-13T03:05:54.436Z,9.73
2023-04-13T03:11:01.233Z,9.79
2023-04-13T03:16:04.791Z,9.65
2023-04-13T03:21:07.093Z,9.58
2023-04-13T03:26:19.091Z,9.64
2023-04-13T03:31:22.340Z,9.44
2023-04-13T03:36:27.738Z,9.30
2023-04-13T03:41:29.858Z,9.40
2023-04-13T03:46:33.182Z,9.36
2023-04-13T03:51:43.417Z,9.32
2023-04-13T03:56:45.214Z,9.14
2023-04-13T04:01:47.044Z,9.07
2023-04-13T04:06:48.914Z,9.07
2023-04-13T04:11:52.391Z,9.03
2023-04-13T04:17:02.131Z,8.79
2023-04-13T04:22:04.279Z,8.75
2023-04-13T04:27:14.331Z,8.89
2023-04-13T04:32:19.829Z,8.70
2023-04-13T04:37:21.997Z,8.69
2023-04-13T04:42:37.486Z,8.61
2023-04-13T04:47:43.271Z,8.53
2023-04-13T04:52:51.207Z,8.59
2023-04-13T04:57:56.819Z,8.61
2023-04-13T05:03:01.098Z,8.48
2023-04-13T05:08:03.267Z,8.54
2023-04-13T05:13:05.553Z,8.64
2023-04-13T05:18:07.591Z,8.97
2023-04-13T05:23:09.833Z,9.11
2023-04-13T05:28:18.329Z,9.23
2023-04-13T05:33:22.632Z,9.26
2023-04-13T05:38:29.460Z,9.13
2023-04-13T05:43:31.699Z,9.10
2023-04-13T05:48:34.849Z,9.10
2023-04-13T05:53:40.573Z,9.09
2023-04-13T05:58:42.429Z,9.06
2023-04-13T06:03:57.622Z,8.98
2023-04-13T06:08:59.872Z,8.96
2023-04-13T06:14:03.118Z,8.94
2023-04-13T06:19:05.409Z,8.84
2023-04-13T06:24:08.685Z,8.87
2023-04-13T06:29:12.696Z,9.04
2023-04-13T06:34:21.715Z,9.12
2023-04-13T06:39:24.154Z,9.14
2023-04-13T06:44:33.023Z,9.10
2023-04-13T06:49:35.002Z,9.04
2023-04-13T06:54:38.102Z,9.05
2023-04-13T06:59:48.396Z,9.08
2023-04-13T07:04:50.304Z,9.17
2023-04-13T07:09:53.165Z,9.30
2023-04-13T07:14:55.856Z,9.35
2023-04-13T07:19:59.007Z,9.54
2023-04-13T07:25:01.696Z,9.61
2023-04-13T07:30:04.949Z,9.62
2023-04-13T07:35:12.918Z,9.51
2023-04-13T07:40:17.089Z,9.41
2023-04-13T07:45:23.214Z,9.37
2023-04-13T07:50:26.335Z,9.42
2023-04-13T07:55:28.293Z,9.65
2023-04-13T08:00:31.484Z,9.94
2023-04-13T08:05:36.920Z,10.34
2023-04-13T08:10:38.858Z,10.33
2023-04-13T08:15:42.206Z,10.34
2023-04-13T08:20:44.153Z,10.22
2023-04-13T08:25:45.824Z,10.11
2023-04-13T08:30:50.353Z,10.20
2023-04-13T08:35:52.432Z,10.26
2023-04-13T08:40:54.794Z,10.35
2023-04-13T08:46:05.163Z,10.42
2023-04-13T08:51:09.404Z,10.59
2023-04-13T08:56:14.820Z,10.78
2023-04-13T09:01:17.824Z,11.05
2023-04-13T09:06:28.764Z,11.13
2023-04-13T09:11:31.201Z,11.25
2023-04-13T09:16:43.717Z,11.30
2023-04-13T09:22:15.246Z,11.39
2023-04-13T09:27:21.742Z,11.52
2023-04-13T09:32:25.698Z,11.58
2023-04-13T09:37:30.561Z,11.68
2023-04-13T09:42:32.360Z,11.58
2023-04-13T09:47:39.682Z,11.24
2023-04-13T09:52:41.470Z,11.36
2023-04-13T09:57:43.300Z,11.12
2023-04-13T10:02:45.753Z,11.06
2023-04-13T10:07:48.086Z,11.25
2023-04-13T10:12:53.652Z,11.56
2023-04-13T10:18:25.937Z,11.49
2023-04-13T10:23:29.561Z,11.51
2023-04-13T10:28:45.168Z,11.73
2023-04-13T10:33:50.955Z,12.19
2023-04-13T10:38:52.619Z,13.02
2023-04-13T10:44:02.682Z,12.93
2023-04-13T10:49:05.106Z,13.92
2023-04-13T10:54:08.245Z,14.46
2023-04-13T10:59:10.656Z,13.82
2023-04-13T11:04:15.252Z,13.29
2023-04-13T11:09:22.818Z,13.70
2023-04-13T11:14:24.518Z,14.29
2023-04-13T11:19:26.448Z,15.07
2023-04-13T11:24:33.810Z,15.64
2023-04-13T11:29:35.514Z,16.00
2023-04-13T11:34:37.150Z,15.41
2023-04-13T11:39:40.031Z,14.78
2023-04-13T11:44:45.568Z,14.26
2023-04-13T11:49:48.135Z,14.52
2023-04-13T11:54:51.017Z,13.99
2023-04-13T11:59:53.488Z,14.84
2023-04-13T12:04:57.082Z,14.99
2023-04-13T12:10:03.259Z,15.49
2023-04-13T12:15:22.862Z,15.40
2023-04-13T12:20:44.122Z,15.08
2023-04-13T12:25:58.931Z,14.57
2023-04-13T12:31:03.913Z,14.73
2023-04-13T12:36:07.124Z,14.22
2023-04-13T12:41:10.190Z,14.23
2023-04-13T12:46:11.874Z,13.87
2023-04-13T12:51:13.739Z,13.90
2023-04-13T12:56:16.060Z,13.72
2023-04-13T13:01:18.127Z,14.80
2023-04-13T13:06:19.783Z,14.66
2023-04-13T13:11:21.660Z,13.90
2023-04-13T13:16:23.397Z,14.10
2023-04-13T13:21:25.077Z,14.03
2023-04-13T13:26:30.539Z,14.10
2023-04-13T13:31:41.672Z,13.62
2023-04-13T13:36:43.436Z,13.35
2023-04-13T13:41:45.395Z,13.51
2023-04-13T13:46:47.137Z,13.88
2023-04-13T13:51:49.368Z,14.21
2023-04-13T13:56:53.004Z,14.18
2023-04-13T14:01:54.836Z,14.02
2023-04-13T14:06:57.187Z,13.89
2023-04-13T14:11:59.751Z,13.68
2023-04-13T14:17:01.450Z,13.38
2023-04-13T14:22:03.119Z,13.38
2023-04-13T14:27:05.481Z,13.91
2023-04-13T14:32:07.201Z,13.90
2023-04-13T14:37:10.008Z,13.90
2023-04-13T14:42:14.520Z,13.40
2023-04-13T14:47:16.456Z,13.50
2023-04-13T14:52:18.245Z,13.38
2023-04-13T14:57:20.291Z,13.35
2023-04-13T15:02:22.146Z,13.66
2023-04-13T15:07:29.252Z,14.08
2023-04-13T15:12:31.015Z,13.70
2023-04-13T15:17:32.994Z,13.72
2023-04-13T15:22:36.165Z,13.58
2023-04-13T15:27:38.156Z,13.67
2023-04-13T15:32:40.988Z,13.87
2023-04-13T15:37:42.841Z,13.54
2023-04-13T15:42:44.681Z,13.19
2023-04-13T15:47:46.837Z,12.94
2023-04-13T15:52:48.670Z,13.25
2023-04-13T15:57:53.529Z,13.33
2023-04-13T16:02:56.336Z,13.17
2023-04-13T16:07:58.667Z,13.21
2023-04-13T16:13:02.811Z,13.27
2023-04-13T16:18:04.834Z,12.92
2023-04-13T16:23:07.062Z,12.83
2023-04-13T16:28:09.757Z,12.70
2023-04-13T16:33:11.746Z,13.02
2023-04-13T16:38:13.501Z,13.17
2023-04-13T16:43:16.503Z,12.67
2023-04-13T16:48:18.224Z,12.38
2023-04-13T16:53:19.993Z,12.38
2023-04-13T16:58:21.699Z,12.37
2023-04-13T17:03:23.572Z,12.28
2023-04-13T17:08:25.722Z,12.23
2023-04-13T17:13:27.567Z,12.45
2023-04-13T17:18:29.307Z,12.36
2023-04-13T17:23:31.498Z,12.26
2023-04-13T17:28:33.317Z,12.19
2023-04-13T17:33:35.067Z,12.05
2023-04-13T17:38:36.776Z,12.09
2023-04-13T17:43:40.309Z,12.12
2023-04-13T17:48:42.448Z,11.83
2023-04-13T17:53:44.472Z,11.78
2023-04-13T17:58:46.376Z,11.64
2023-04-13T18:03:48.677Z,11.74
2023-04-13T18:08:50.955Z,11.73
2023-04-13T18:13:52.740Z,11.58
2023-04-13T18:18:54.488Z,11.25
2023-04-13T18:23:56.302Z,11.03
2023-04-13T18:28:58.054Z,10.87
2023-04-13T18:34:00.208Z,11.00
2023-04-13T18:39:03.670Z,11.09
2023-04-13T18:44:05.454Z,10.94
2023-04-13T18:49:07.244Z,10.80
2023-04-13T18:54:08.891Z,10.89
2023-04-13T18:59:10.767Z,10.96
2023-04-13T19:04:12.571Z,10.68
2023-04-13T19:09:14.798Z,10.53
2023-04-13T19:14:16.575Z,10.43
2023-04-13T19:19:18.287Z,10.40
2023-04-13T19:24:20.798Z,10.33
2023-04-13T19:29:23.371Z,10.22
2023-04-13T19:34:25.070Z,10.20
2023-04-13T19:39:27.295Z,10.16
2023-04-13T19:44:29.038Z,10.09
2023-04-13T19:49:30.754Z,10.29
2023-04-13T19:54:32.632Z,9.96
2023-04-13T19:59:34.295Z,9.79
2023-04-13T20:04:37.485Z,9.71
2023-04-13T20:09:39.283Z,9.69
2023-04-13T20:14:42.228Z,9.72
2023-04-13T20:19:44.048Z,9.46
2023-04-13T20:24:45.667Z,9.47
2023-04-13T20:29:47.788Z,9.68
2023-04-13T20:34:49.508Z,9.47
2023-04-13T20:39:51.497Z,9.22
2023-04-13T20:45:00.007Z,9.00
2023-04-13T20:50:02.075Z,8.93
2023-04-13T20:55:03.999Z,8.97
2023-04-13T21:00:10.532Z,8.93
2023-04-13T21:05:12.931Z,8.95
2023-04-13T21:10:17.540Z,9.21
2023-04-13T21:15:19.200Z,8.92
2023-04-13T21:20:21.088Z,8.63
2023-04-13T21:25:23.035Z,8.52
2023-04-13T21:30:24.714Z,8.68
2023-04-13T21:35:26.310Z,8.53
2023-04-13T21:40:27.956Z,8.63
2023-04-13T21:45:29.926Z,8.50
2023-04-13T21:50:31.629Z,8.83
2023-04-13T21:55:33.357Z,8.73
2023-04-13T22:00:34.978Z,9.10
2023-04-13T22:05:36.641Z,8.80
2023-04-13T22:10:38.285Z,8.59
2023-04-13T22:15:40.062Z,8.57
2023-04-13T22:20:41.756Z,8.49
2023-04-13T22:25:51.625Z,8.43
2023-04-13T22:30:53.501Z,8.40
2023-04-13T22:35:55.135Z,8.42
2023-04-13T22:40:57.629Z,8.43
2023-04-13T22:46:02.152Z,8.40
2023-04-13T22:51:04.005Z,8.42
2023-04-13T22:56:05.892Z,8.75
2023-04-13T23:01:07.675Z,8.83
2023-04-13T23:06:09.339Z,8.57
2023-04-13T23:11:11.220Z,8.38
2023-04-13T23:16:13.135Z,8.34
2023-04-13T23:21:14.794Z,8.34
2023-04-13T23:26:16.528Z,8.41
2023-04-13T23:31:18.304Z,8.39
2023-04-13T23:36:20.263Z,8.42
2023-04-13T23:41:22.267Z,8.40
2023-04-13T23:46:24.501Z,8.40
2023-04-13T23:51:26.379Z,8.33
2023-04-13T23:56:28.320Z,8.30
